Time;durP1;ratioP1;P1;durP2;ratioP2;P2;SDS_P1;SDS_P2;PMS_P1;PMS_P2;Temp;Humidity;BMP_temperature;BMP_pressure;BME280_temperature;BME280_humidity;BME280_pressure;Samples;Min_cycle;Max_cycle;Signal;HPM_P1;HPM_P2
2022/07/25 00:01:48;;;;;;;8.85;7.10;;;19.30;87.40;;;;;;5049271;28;20576;-46
2022/07/25 00:04:14;;;;;;;9.75;8.23;;;19.40;87.30;;;;;;5048845;28;20024;-46
2022/07/25 00:06:43;;;;;;;10.73;7.72;;;19.40;87.20;;;;;;5048899;28;20552;-47
2022/07/25 00:09:09;;;;;;;10.73;8.93;;;19.40;87.10;;;;;;5049123;28;20447;-48
2022/07/25 00:11:35;;;;;;;10.13;9.23;;;19.50;87.00;;;;;;5050797;28;20442;-47
2022/07/25 00:14:00;;;;;;;9.40;8.35;;;19.50;86.90;;;;;;5035157;28;20045;-47
2022/07/25 00:16:26;;;;;;;9.68;8.68;;;19.60;86.70;;;;;;5068256;28;20052;-47
2022/07/25 00:18:54;;;;;;;10.35;8.77;;;19.60;86.60;;;;;;5052127;28;20017;-47
2022/07/25 00:21:19;;;;;;;11.02;9.18;;;19.70;86.50;;;;;;5067245;28;20045;-47
2022/07/25 00:23:45;;;;;;;10.18;8.50;;;19.70;86.50;;;;;;5051762;28;20761;-47
2022/07/25 00:26:11;;;;;;;11.25;9.15;;;19.80;86.40;;;;;;5051946;28;20113;-48
2022/07/25 00:28:37;;;;;;;10.23;9.18;;;19.80;86.30;;;;;;5034765;28;20362;-48
2022/07/25 00:31:02;;;;;;;8.93;8.05;;;19.80;86.20;;;;;;5052392;28;20017;-46
2022/07/25 00:33:28;;;;;;;10.55;9.50;;;19.80;86.20;;;;;;5052425;28;20685;-46
2022/07/25 00:35:54;;;;;;;9.40;8.40;;;19.90;86.10;;;;;;5034345;28;20037;-46
2022/07/25 00:38:21;;;;;;;9.15;8.25;;;19.90;86.10;;;;;;5067644;28;20039;-48
2022/07/25 00:40:47;;;;;;;11.23;10.07;;;19.90;86.00;;;;;;5051838;28;20063;-46
2022/07/25 00:43:13;;;;;;;10.93;9.13;;;19.90;85.80;;;;;;5067316;28;20114;-46
2022/07/25 00:45:38;;;;;;;11.65;9.60;;;19.90;85.70;;;;;;5051499;28;20025;-46
2022/07/25 00:48:07;;;;;;;11.27;9.73;;;19.90;85.70;;;;;;5032820;28;20041;-47
2022/07/25 00:50:33;;;;;;;10.95;9.27;;;20.00;85.50;;;;;;5030672;28;20041;-47
2022/07/25 00:52:58;;;;;;;11.07;9.57;;;20.10;85.40;;;;;;5012976;28;20065;-53
2022/07/25 00:55:24;;;;;;;10.43;9.25;;;20.10;85.20;;;;;;5030508;28;20455;-48
2022/07/25 00:57:50;;;;;;;9.98;9.07;;;20.10;85.10;;;;;;5030882;28;20025;-50
2022/07/25 01:00:16;;;;;;;10.07;9.18;;;20.20;84.90;;;;;;5030904;28;20155;-47
2022/07/25 01:02:45;;;;;;;10.10;9.10;;;20.20;84.60;;;;;;5030973;28;20029;-46
2022/07/25 01:05:11;;;;;;;10.57;9.33;;;20.20;84.50;;;;;;5031717;28;20029;-47
2022/07/25 01:07:38;;;;;;;12.85;10.18;;;20.30;84.20;;;;;;5031803;28;20029;-49
2022/07/25 01:10:05;;;;;;;11.73;9.75;;;20.30;83.90;;;;;;5031709;28;20041;-48
2022/07/25 01:12:30;;;;;;;11.20;10.00;;;20.30;83.70;;;;;;5047784;28;20039;-47
2022/07/25 01:14:56;;;;;;;13.57;12.40;;;20.30;83.50;;;;;;5031787;28;20025;-47
2022/07/25 01:17:23;;;;;;;13.45;10.02;;;20.30;83.30;;;;;;5014188;28;20079;-49
2022/07/25 01:19:50;;;;;;;12.70;9.90;;;20.30;83.00;;;;;;4997721;28;20029;-47
2022/07/25 01:22:16;;;;;;;10.02;9.13;;;20.30;82.90;;;;;;5030349;28;20112;-48
2022/07/25 01:24:42;;;;;;;11.55;10.40;;;20.30;82.70;;;;;;5031408;28;20013;-48
2022/07/25 01:27:08;;;;;;;10.88;9.77;;;20.30;82.40;;;;;;5013944;28;20113;-47
2022/07/25 01:29:35;;;;;;;10.60;9.50;;;20.30;82.30;;;;;;5031267;28;20129;-47
2022/07/25 01:32:02;;;;;;;10.07;9.07;;;20.30;82.20;;;;;;5031619;28;20120;-47
2022/07/25 01:34:27;;;;;;;12.60;9.85;;;20.40;82.10;;;;;;5031134;28;20490;-49
2022/07/25 01:36:53;;;;;;;12.20;10.07;;;20.30;81.60;;;;;;5031304;28;20026;-47
2022/07/25 01:39:19;;;;;;;11.18;10.18;;;20.30;81.50;;;;;;5031098;28;20037;-49
2022/07/25 01:41:44;;;;;;;10.75;9.80;;;20.30;81.30;;;;;;5030184;28;20041;-47
2022/07/25 01:44:10;;;;;;;11.35;10.18;;;20.30;81.20;;;;;;5028952;28;20422;-47
2022/07/25 01:46:35;;;;;;;11.27;10.20;;;20.30;80.80;;;;;;5030102;28;20046;-49
2022/07/25 01:49:01;;;;;;;12.00;10.75;;;20.30;80.50;;;;;;5030867;28;20068;-51
2022/07/25 01:51:27;;;;;;;11.40;10.20;;;20.30;80.50;;;;;;5031061;28;20029;-47
2022/07/25 01:53:52;;;;;;;13.43;10.65;;;20.30;80.30;;;;;;5029734;28;20091;-49
2022/07/25 01:56:18;;;;;;;11.45;10.38;;;20.30;80.20;;;;;;5031084;28;20063;-48
2022/07/25 01:58:43;;;;;;;11.88;10.20;;;20.30;80.00;;;;;;5030902;28;20044;-48
2022/07/25 02:01:09;;;;;;;12.48;9.90;;;20.30;79.80;;;;;;5030901;28;20029;-51
2022/07/25 02:03:35;;;;;;;12.77;11.38;;;20.30;79.70;;;;;;5030875;28;20040;-52
2022/07/25 02:06:05;;;;;;;14.02;10.38;;;20.30;79.60;;;;;;5030559;28;20358;-49
2022/07/25 02:08:31;;;;;;;13.30;11.82;;;20.40;79.50;;;;;;5030360;28;20074;-49
2022/07/25 02:10:57;;;;;;;10.85;9.95;;;20.40;79.20;;;;;;5030838;28;20037;-50
2022/07/25 02:13:24;;;;;;;12.25;11.15;;;20.40;79.10;;;;;;5029738;28;20035;-51
2022/07/25 02:15:52;;;;;;;11.55;10.35;;;20.40;78.90;;;;;;5030369;28;20034;-47
2022/07/25 02:18:18;;;;;;;13.75;10.60;;;20.40;78.90;;;;;;5030085;28;20033;-48
2022/07/25 02:20:44;;;;;;;11.93;10.55;;;20.40;78.80;;;;;;5029994;28;20075;-47
2022/07/25 02:23:10;;;;;;;11.93;10.82;;;20.30;78.90;;;;;;5012186;28;20040;-46
2022/07/25 02:25:35;;;;;;;11.68;10.57;;;20.40;78.70;;;;;;5029798;28;20447;-50
2022/07/25 02:28:02;;;;;;;12.52;11.30;;;20.30;78.80;;;;;;5030053;28;20036;-50
2022/07/25 02:30:28;;;;;;;11.75;10.75;;;20.30;78.80;;;;;;5012865;28;20021;-47
2022/07/25 02:32:53;;;;;;;12.10;10.90;;;20.30;78.70;;;;;;5030201;28;20033;-50
2022/07/25 02:35:19;;;;;;;10.07;9.18;;;20.30;78.60;;;;;;5028668;28;20025;-50
2022/07/25 02:37:45;;;;;;;12.27;10.50;;;20.20;78.50;;;;;;5029148;28;20032;-49
2022/07/25 02:40:13;;;;;;;10.82;9.73;;;20.30;78.20;;;;;;5029900;28;20026;-47
2022/07/25 02:42:38;;;;;;;11.43;10.30;;;20.30;78.00;;;;;;5045541;28;20025;-47
2022/07/25 02:45:07;;;;;;;10.43;9.43;;;20.30;77.80;;;;;;5029787;28;20202;-47
2022/07/25 02:47:35;;;;;;;10.57;9.48;;;20.30;77.60;;;;;;5025153;28;20048;-52
2022/07/25 02:50:01;;;;;;;11.55;10.02;;;20.40;77.60;;;;;;5049586;28;20175;-49
2022/07/25 02:52:26;;;;;;;12.05;9.98;;;20.40;77.50;;;;;;5048669;28;20116;-47
2022/07/25 02:54:52;;;;;;;14.05;10.35;;;20.30;77.40;;;;;;5049520;28;20013;-47
2022/07/25 02:57:18;;;;;;;10.18;9.18;;;20.30;77.40;;;;;;5049811;28;20122;-47
2022/07/25 02:59:43;;;;;;;17.42;10.43;;;20.30;77.30;;;;;;5048724;28;20040;-47
2022/07/25 03:02:11;;;;;;;10.75;9.75;;;20.30;77.20;;;;;;5049765;28;20037;-49
2022/07/25 03:04:37;;;;;;;12.88;9.73;;;20.30;77.20;;;;;;5049465;28;20044;-47
2022/07/25 03:07:02;;;;;;;11.15;10.15;;;20.30;77.20;;;;;;5049369;28;20037;-46
2022/07/25 03:09:28;;;;;;;10.80;9.80;;;20.20;77.20;;;;;;5048506;28;20025;-46
2022/07/25 03:11:54;;;;;;;12.57;9.98;;;20.20;77.30;;;;;;5030995;28;20028;-46
2022/07/25 03:14:22;;;;;;;10.77;9.57;;;20.20;77.00;;;;;;5047527;28;20041;-50
2022/07/25 03:16:47;;;;;;;10.73;9.73;;;20.20;76.70;;;;;;5048889;28;20039;-50
2022/07/25 03:19:13;;;;;;;10.50;9.43;;;20.20;76.70;;;;;;5048783;28;20021;-51
2022/07/25 03:21:39;;;;;;;12.77;9.55;;;20.20;76.60;;;;;;5047655;28;20049;-50
2022/07/25 03:24:07;;;;;;;11.23;9.25;;;20.20;76.60;;;;;;5047628;28;20029;-46
2022/07/25 03:26:33;;;;;;;10.60;9.60;;;20.30;76.60;;;;;;5048346;28;20021;-47
2022/07/25 03:28:58;;;;;;;10.45;8.88;;;20.20;76.50;;;;;;5031928;28;20040;-46
2022/07/25 03:31:24;;;;;;;10.48;9.45;;;20.30;76.70;;;;;;5049452;28;20561;-47
2022/07/25 03:33:50;;;;;;;11.38;10.27;;;20.20;76.60;;;;;;5049110;28;20029;-47
2022/07/25 03:36:15;;;;;;;10.73;9.05;;;20.20;76.60;;;;;;5049226;28;20115;-47
2022/07/25 03:38:41;;;;;;;11.25;10.18;;;20.20;76.60;;;;;;5064950;28;20020;-47
2022/07/25 03:41:06;;;;;;;10.70;9.80;;;20.20;76.40;;;;;;5049363;28;20056;-48
2022/07/25 03:43:32;;;;;;;10.57;9.50;;;20.30;76.40;;;;;;5049071;28;20029;-48
2022/07/25 03:45:58;;;;;;;10.77;9.73;;;20.20;76.40;;;;;;5032497;28;20518;-47
2022/07/25 03:48:23;;;;;;;11.25;9.95;;;20.20;76.40;;;;;;5053180;28;20041;-47
2022/07/25 03:50:49;;;;;;;10.00;9.10;;;20.30;76.40;;;;;;5035766;28;20410;-50
2022/07/25 03:53:15;;;;;;;14.50;9.98;;;20.20;76.50;;;;;;5035458;28;20073;-49
2022/07/25 03:55:40;;;;;;;10.98;9.65;;;20.20;76.60;;;;;;5053123;28;20102;-48
2022/07/25 03:58:06;;;;;;;11.10;8.55;;;20.20;76.60;;;;;;5053110;28;20418;-47
2022/07/25 04:00:32;;;;;;;12.35;9.95;;;20.20;76.60;;;;;;5035470;28;20029;-48
2022/07/25 04:02:57;;;;;;;10.68;9.57;;;20.20;76.60;;;;;;5053131;28;20047;-48
2022/07/25 04:05:23;;;;;;;11.25;9.80;;;20.20;76.50;;;;;;5051654;28;20021;-50
2022/07/25 04:07:49;;;;;;;11.05;9.95;;;20.20;76.30;;;;;;5051894;28;20051;-47
2022/07/25 04:10:14;;;;;;;11.60;10.38;;;20.20;76.40;;;;;;5052706;28;20036;-46
2022/07/25 04:12:40;;;;;;;14.32;10.90;;;20.20;76.30;;;;;;5051568;28;20028;-48
2022/07/25 04:15:06;;;;;;;10.80;9.80;;;20.20;76.20;;;;;;5068511;28;20502;-49
2022/07/25 04:17:32;;;;;;;12.73;9.57;;;20.30;75.90;;;;;;5052059;28;20021;-50
2022/07/25 04:19:58;;;;;;;10.88;9.43;;;20.40;75.90;;;;;;5051074;28;20116;-46
2022/07/25 04:22:23;;;;;;;10.15;8.98;;;20.40;75.80;;;;;;5051794;28;20074;-46
2022/07/25 04:24:54;;;;;;;9.95;8.95;;;20.40;75.50;;;;;;5051279;28;20455;-47
2022/07/25 04:27:19;;;;;;;12.15;10.05;;;20.50;75.30;;;;;;5052430;28;20061;-47
2022/07/25 04:29:45;;;;;;;12.45;10.32;;;20.60;74.90;;;;;;5051490;28;20060;-49
2022/07/25 04:32:12;;;;;;;10.27;9.15;;;20.60;74.70;;;;;;5051244;28;20136;-46
2022/07/25 04:34:38;;;;;;;11.00;9.77;;;20.60;75.00;;;;;;5051248;28;20024;-47
2022/07/25 04:37:05;;;;;;;11.20;9.65;;;20.60;75.00;;;;;;5052280;28;20083;-46
2022/07/25 04:39:31;;;;;;;11.80;8.57;;;20.60;74.90;;;;;;5051696;28;20029;-46
2022/07/25 04:41:57;;;;;;;10.48;9.35;;;20.70;75.00;;;;;;5051568;28;20031;-47
2022/07/25 04:44:23;;;;;;;10.32;9.30;;;20.60;74.90;;;;;;5051502;28;20109;-47
2022/07/25 04:46:51;;;;;;;9.75;8.75;;;20.70;75.00;;;;;;5043209;28;20141;-47
2022/07/25 04:49:17;;;;;;;11.27;9.90;;;20.60;75.10;;;;;;5031314;28;20021;-49
2022/07/25 04:51:42;;;;;;;11.73;9.90;;;20.70;75.20;;;;;;5031063;28;20030;-47
2022/07/25 04:54:08;;;;;;;9.80;8.80;;;20.70;75.10;;;;;;5031437;28;20586;-48
2022/07/25 04:56:34;;;;;;;10.82;9.73;;;20.70;75.20;;;;;;5047163;28;20022;-47
2022/07/25 04:59:02;;;;;;;11.15;10.10;;;20.80;75.20;;;;;;5032052;28;20364;-48
2022/07/25 05:01:27;;;;;;;10.30;9.18;;;20.80;75.10;;;;;;5014363;28;20033;-49
2022/07/25 05:03:53;;;;;;;12.43;10.13;;;20.80;75.20;;;;;;5031498;28;20029;-52
2022/07/25 05:06:21;;;;;;;10.48;9.45;;;20.80;75.00;;;;;;5014251;28;20450;-48
2022/07/25 05:08:47;;;;;;;9.88;8.75;;;20.80;75.40;;;;;;5030569;28;20486;-48
2022/07/25 05:11:12;;;;;;;10.23;9.30;;;20.80;75.40;;;;;;5031817;28;20104;-49
2022/07/25 05:13:38;;;;;;;9.98;8.98;;;20.80;75.40;;;;;;5031264;28;20037;-53
2022/07/25 05:16:04;;;;;;;11.20;10.10;;;20.80;75.40;;;;;;5030617;28;20455;-49
2022/07/25 05:18:30;;;;;;;10.88;9.80;;;20.70;75.50;;;;;;5031576;28;20372;-48
2022/07/25 05:20:55;;;;;;;10.38;8.85;;;20.70;75.40;;;;;;5031639;28;20032;-47
2022/07/25 05:23:21;;;;;;;12.23;10.23;;;20.70;75.20;;;;;;5030578;28;20100;-49
2022/07/25 05:25:49;;;;;;;11.95;9.82;;;20.70;75.20;;;;;;5029318;28;20052;-48
2022/07/25 05:28:14;;;;;;;11.65;10.55;;;20.80;75.10;;;;;;5029201;28;20351;-47
2022/07/25 05:30:40;;;;;;;10.80;9.85;;;20.80;74.70;;;;;;5029987;28;20040;-52
2022/07/25 05:33:06;;;;;;;10.63;9.52;;;20.90;74.50;;;;;;5030075;28;20017;-48
2022/07/25 05:35:31;;;;;;;10.77;9.77;;;20.90;74.40;;;;;;5030342;28;20025;-47
2022/07/25 05:37:57;;;;;;;12.07;10.85;;;20.90;74.30;;;;;;5013199;28;20454;-48
2022/07/25 05:40:23;;;;;;;12.43;11.13;;;21.00;73.20;;;;;;5030266;28;20075;-51
2022/07/25 05:42:48;;;;;;;12.10;10.65;;;21.10;73.40;;;;;;5030454;28;20029;-48
2022/07/25 05:45:16;;;;;;;12.63;10.10;;;21.20;73.50;;;;;;5012810;28;20101;-49
2022/07/25 05:47:42;;;;;;;12.15;10.95;;;21.30;73.40;;;;;;5044260;28;20045;-48
2022/07/25 05:50:08;;;;;;;10.70;9.68;;;21.30;73.40;;;;;;5050046;28;20017;-49
2022/07/25 05:52:34;;;;;;;11.77;10.63;;;21.30;73.50;;;;;;5032270;28;20032;-50
2022/07/25 05:55:00;;;;;;;11.90;10.70;;;21.30;73.20;;;;;;5049115;28;20020;-50
2022/07/25 05:57:26;;;;;;;11.13;10.02;;;21.30;73.10;;;;;;5050266;28;20040;-48
2022/07/25 05:59:52;;;;;;;12.38;10.43;;;21.40;73.50;;;;;;5050394;28;20025;-48
2022/07/25 06:02:17;;;;;;;11.63;10.65;;;21.40;73.10;;;;;;5048768;28;20095;-47
2022/07/25 06:04:43;;;;;;;11.82;10.63;;;21.50;73.00;;;;;;5049855;28;20028;-48
2022/07/25 06:07:09;;;;;;;12.00;10.07;;;21.70;72.40;;;;;;5049844;28;20075;-48
2022/07/25 06:09:35;;;;;;;13.23;10.27;;;21.90;72.30;;;;;;5064848;28;20029;-47
2022/07/25 06:12:02;;;;;;;11.45;10.35;;;22.10;71.80;;;;;;5032275;28;20040;-50
2022/07/25 06:14:28;;;;;;;12.23;10.63;;;22.10;71.70;;;;;;5049551;28;20033;-47
2022/07/25 06:16:55;;;;;;;11.05;10.02;;;22.20;71.20;;;;;;5049501;28;20432;-50
2022/07/25 06:19:20;;;;;;;9.98;8.98;;;22.20;72.20;;;;;;5031199;28;20457;-47
2022/07/25 06:21:48;;;;;;;10.98;9.95;;;22.20;72.20;;;;;;5048883;28;20033;-48
2022/07/25 06:24:14;;;;;;;11.82;10.63;;;22.20;72.70;;;;;;5031638;28;20077;-49
2022/07/25 06:26:40;;;;;;;11.43;10.32;;;22.30;72.20;;;;;;5031837;28;20037;-48
2022/07/25 06:29:07;;;;;;;11.30;10.07;;;22.30;72.30;;;;;;5049477;28;20040;-47
2022/07/25 06:31:33;;;;;;;11.93;10.82;;;22.40;72.30;;;;;;5047974;28;20023;-48
2022/07/25 06:34:01;;;;;;;11.27;10.27;;;22.50;72.30;;;;;;5048167;28;20116;-47
2022/07/25 06:36:26;;;;;;;12.95;11.25;;;22.80;71.70;;;;;;5049679;28;20064;-52
2022/07/25 06:38:52;;;;;;;10.98;9.98;;;22.90;70.80;;;;;;5049238;28;20048;-51
2022/07/25 06:41:18;;;;;;;11.85;10.68;;;23.00;70.70;;;;;;5049463;28;20021;-48
2022/07/25 06:43:44;;;;;;;11.40;10.30;;;23.10;69.60;;;;;;5048359;28;20750;-47
2022/07/25 06:46:10;;;;;;;17.98;10.88;;;23.10;69.80;;;;;;5048990;28;20113;-49
2022/07/25 06:48:35;;;;;;;11.80;10.25;;;23.20;69.70;;;;;;5049805;28;20400;-50
2022/07/25 06:51:01;;;;;;;11.77;10.65;;;23.30;69.90;;;;;;5049824;28;20322;-49
2022/07/25 06:53:29;;;;;;;12.23;10.98;;;23.50;69.70;;;;;;5049882;28;20036;-49
2022/07/25 06:55:54;;;;;;;10.98;9.88;;;23.50;68.90;;;;;;5049552;28;20029;-49
2022/07/25 06:58:22;;;;;;;11.23;9.45;;;23.60;69.70;;;;;;5065498;28;20032;-50
2022/07/25 07:00:49;;;;;;;11.95;10.82;;;23.80;69.10;;;;;;5049684;28;20025;-49
2022/07/25 07:03:16;;;;;;;11.10;9.98;;;23.80;68.50;;;;;;5049696;28;20036;-50
2022/07/25 07:05:42;;;;;;;12.68;11.38;;;23.80;67.90;;;;;;5049354;28;20438;-49
2022/07/25 07:08:10;;;;;;;10.18;9.18;;;23.80;68.60;;;;;;5049471;28;20100;-49
2022/07/25 07:10:36;;;;;;;11.95;10.80;;;24.00;70.10;;;;;;5049516;28;20029;-49
2022/07/25 07:13:10;;;;;;;11.63;10.63;;;24.10;68.70;;;;;;5049469;28;20354;-51
2022/07/25 07:15:39;;;;;;;10.77;9.38;;;24.30;68.50;;;;;;5049627;28;20427;-48
2022/07/25 07:18:06;;;;;;;11.73;10.63;;;24.30;68.40;;;;;;5031983;28;20039;-50
2022/07/25 07:20:31;;;;;;;11.07;9.98;;;24.30;68.00;;;;;;5049188;28;20742;-49
2022/07/25 07:22:57;;;;;;;10.93;9.82;;;24.20;67.20;;;;;;5049339;28;20086;-50
2022/07/25 07:25:25;;;;;;;9.80;8.75;;;24.20;67.50;;;;;;5049181;28;20464;-50
2022/07/25 07:27:53;;;;;;;12.23;10.63;;;24.20;68.00;;;;;;5048538;28;20635;-48
2022/07/25 07:30:18;;;;;;;10.70;9.70;;;24.30;67.40;;;;;;5048041;28;20025;-49
2022/07/25 07:32:45;;;;;;;10.98;9.55;;;24.40;68.60;;;;;;5048442;28;20044;-47
2022/07/25 07:35:15;;;;;;;10.57;9.55;;;24.40;67.60;;;;;;5049300;28;20025;-47
2022/07/25 07:37:41;;;;;;;13.98;9.63;;;24.50;68.00;;;;;;5049554;28;20037;-46
2022/07/25 07:40:10;;;;;;;14.48;10.45;;;24.80;67.50;;;;;;5049142;28;20040;-47
2022/07/25 07:42:46;;;;;;;12.25;10.25;;;25.30;66.70;;;;;;5048389;28;20044;-47
2022/07/25 07:45:13;;;;;;;10.35;9.18;;;25.50;63.90;;;;;;5049328;28;20413;-47
2022/07/25 07:47:42;;;;;;;9.70;8.73;;;25.80;64.30;;;;;;5049074;28;20040;-47
2022/07/25 07:50:09;;;;;;;12.68;9.13;;;26.10;63.80;;;;;;5031419;28;20058;-51
2022/07/25 07:52:37;;;;;;;11.10;8.82;;;26.50;64.40;;;;;;5048963;28;20472;-47
2022/07/25 07:57:48;;;;;;;9.55;8.73;;;27.70;61.10;;;;;;5049507;28;20033;-49
2022/07/25 08:00:15;;;;;;;8.10;7.32;;;27.90;59.10;;;;;;5048982;28;20032;-47
2022/07/25 08:02:49;;;;;;;8.63;7.82;;;28.00;59.40;;;;;;5048968;28;20036;-50
2022/07/25 08:05:29;;;;;;;8.40;6.53;;;28.30;58.40;;;;;;5048913;28;20564;-48
2022/07/25 08:07:59;;;;;;;11.65;7.10;;;28.70;56.20;;;;;;5049145;28;20074;-49
2022/07/25 08:10:27;;;;;;;8.65;6.70;;;28.70;55.80;;;;;;5048994;28;20083;-49
2022/07/25 08:12:53;;;;;;;6.90;5.97;;;29.00;55.30;;;;;;5048737;28;20037;-47
2022/07/25 08:15:20;;;;;;;12.57;6.85;;;28.90;55.20;;;;;;5064537;28;20025;-47
2022/07/25 08:17:46;;;;;;;10.52;7.10;;;29.30;54.40;;;;;;5049119;28;20029;-52
2022/07/25 08:20:12;;;;;;;9.70;6.85;;;29.50;53.80;;;;;;5031264;28;20108;-47
2022/07/25 08:22:44;;;;;;;7.40;6.78;;;29.30;53.40;;;;;;5048629;28;20071;-47
2022/07/25 08:25:13;;;;;;;7.75;6.20;;;29.10;53.50;;;;;;5048780;28;20520;-49
2022/07/25 08:27:39;;;;;;;;;;;28.90;54.60;;;;;;5048302;28;20049;-49
2022/07/25 08:30:06;;;;;;;7.82;7.03;;;29.10;55.20;;;;;;5048640;28;19943;-48
2022/07/25 08:32:32;;;;;;;9.93;7.10;;;29.20;54.10;;;;;;5032990;28;20071;-49
2022/07/25 08:34:59;;;;;;;8.93;6.47;;;29.10;53.50;;;;;;5052050;28;20025;-52
2022/07/25 08:37:29;;;;;;;7.47;6.75;;;29.30;53.50;;;;;;5034853;28;20456;-51
2022/07/25 08:39:55;;;;;;;7.90;6.55;;;29.70;53.10;;;;;;5051372;28;20029;-50
2022/07/25 08:42:21;;;;;;;7.40;6.70;;;30.10;52.80;;;;;;5052370;28;20059;-53
2022/07/25 08:44:57;;;;;;;8.48;6.72;;;30.60;52.30;;;;;;5051974;28;20033;-48
2022/07/25 08:47:27;;;;;;;7.80;6.20;;;30.60;51.20;;;;;;5050793;28;20053;-48
2022/07/25 08:49:54;;;;;;;7.30;6.55;;;30.70;50.50;;;;;;5052164;28;20373;-54
2022/07/25 08:52:21;;;;;;;13.00;7.30;;;30.70;51.30;;;;;;5052143;28;20099;-48
2022/07/25 08:54:48;;;;;;;8.57;7.15;;;30.80;50.50;;;;;;5034273;28;20045;-50
2022/07/25 08:57:15;;;;;;;8.60;5.90;;;30.80;50.70;;;;;;5051832;28;20079;-48
2022/07/25 08:59:43;;;;;;;6.20;5.60;;;30.60;50.20;;;;;;5051900;28;20032;-49
2022/07/25 09:02:17;;;;;;;7.10;6.43;;;30.60;52.90;;;;;;5050821;28;20035;-49
2022/07/25 09:04:45;;;;;;;7.00;6.30;;;30.50;51.00;;;;;;5051413;28;20117;-51
2022/07/25 09:07:11;;;;;;;6.82;6.07;;;30.00;51.40;;;;;;5051594;28;20040;-48
2022/07/25 09:09:38;;;;;;;7.25;6.55;;;29.50;52.30;;;;;;5033715;28;20029;-48
2022/07/25 09:12:07;;;;;;;9.23;6.93;;;29.20;53.90;;;;;;5050525;28;20029;-50
2022/07/25 09:14:42;;;;;;;;;;;28.70;54.30;;;;;;5051711;28;20053;-48
2022/07/25 09:17:07;;;;;;;8.60;6.57;;;28.20;54.20;;;;;;5051167;28;19983;-48
2022/07/25 09:19:33;;;;;;;9.50;6.93;;;27.90;56.60;;;;;;5033599;28;20510;-50
2022/07/25 09:22:00;;;;;;;7.65;6.95;;;27.90;58.20;;;;;;5051161;28;20079;-49
2022/07/25 09:24:27;;;;;;;6.97;6.28;;;28.00;57.60;;;;;;5050913;28;20028;-50
2022/07/25 09:26:54;;;;;;;7.40;6.70;;;28.20;58.80;;;;;;5049836;28;20434;-50
2022/07/25 09:29:32;;;;;;;11.18;7.35;;;28.40;59.80;;;;;;5051019;28;20035;-50
2022/07/25 09:31:59;;;;;;;10.60;7.70;;;28.60;55.90;;;;;;5050981;28;20044;-48
2022/07/25 09:34:46;;;;;;;8.18;7.07;;;28.40;56.10;;;;;;5050522;28;20091;-48
2022/07/25 09:37:13;;;;;;;8.63;7.82;;;28.30;55.90;;;;;;5050881;28;20021;-48
2022/07/25 09:39:46;;;;;;;8.85;8.05;;;28.10;57.60;;;;;;5049555;28;20021;-50
2022/07/25 09:42:18;;;;;;;8.38;7.45;;;28.00;58.40;;;;;;5032959;28;20454;-47
2022/07/25 09:44:55;;;;;;;8.55;7.75;;;28.10;59.80;;;;;;5049411;28;20036;-51
2022/07/25 09:47:21;;;;;;;9.15;8.23;;;28.30;59.40;;;;;;5053402;28;20038;-49
2022/07/25 09:49:49;;;;;;;9.82;8.88;;;28.50;60.60;;;;;;5030474;28;20026;-48
2022/07/25 09:52:16;;;;;;;12.35;8.10;;;28.40;57.30;;;;;;5030489;28;20529;-51
2022/07/25 09:54:44;;;;;;;8.35;7.30;;;28.00;57.50;;;;;;5030536;28;20068;-47
2022/07/25 09:57:10;;;;;;;10.02;8.20;;;27.80;58.70;;;;;;5030563;28;20067;-53
2022/07/25 09:59:37;;;;;;;9.30;8.05;;;27.50;59.10;;;;;;5030403;28;20026;-48
2022/07/25 10:02:25;;;;;;;9.05;8.23;;;27.30;59.90;;;;;;5030298;28;20029;-49
2022/07/25 10:05:19;;;;;;;8.45;7.65;;;27.00;60.30;;;;;;5030037;28;20040;-50
2022/07/25 10:07:48;;;;;;;12.07;9.05;;;27.10;62.60;;;;;;5022949;28;20049;-49
2022/07/25 10:10:31;;;;;;;9.75;8.75;;;27.40;61.40;;;;;;5029958;28;20044;-53
2022/07/25 10:13:31;;;;;;;9.70;8.23;;;27.40;61.50;;;;;;5029845;28;20041;-50
2022/07/25 10:15:59;;;;;;;12.63;9.98;;;27.50;61.40;;;;;;5012758;28;20025;-53
2022/07/25 10:18:28;;;;;;;10.40;9.20;;;27.40;60.10;;;;;;5030155;28;20029;-48
2022/07/25 10:21:14;;;;;;;11.02;9.52;;;27.30;61.00;;;;;;5029896;28;20104;-48
2022/07/25 10:23:45;;;;;;;12.02;9.05;;;27.10;60.70;;;;;;5012131;28;20044;-49
2022/07/25 10:26:15;;;;;;;13.40;10.93;;;27.10;61.50;;;;;;5012401;28;20029;-49
2022/07/25 10:28:45;;;;;;;9.50;8.63;;;27.00;60.50;;;;;;5029935;28;20447;-48
2022/07/25 10:31:15;;;;;;;10.65;9.57;;;27.10;60.80;;;;;;5029695;28;20021;-49
2022/07/25 10:33:41;;;;;;;11.00;9.02;;;27.00;61.90;;;;;;5030201;28;20035;-48
2022/07/25 10:36:10;;;;;;;11.30;10.10;;;26.90;61.90;;;;;;5012592;28;20030;-49
2022/07/25 10:38:40;;;;;;;10.87;9.87;;;26.90;61.30;;;;;;5013194;28;20033;-49
2022/07/25 10:41:07;;;;;;;12.55;10.57;;;26.70;61.60;;;;;;5029922;28;20033;-50
2022/07/25 10:43:40;;;;;;;10.77;9.35;;;26.40;61.90;;;;;;5029607;28;20025;-48
2022/07/25 10:46:21;;;;;;;10.95;9.90;;;26.20;63.80;;;;;;5030558;28;20029;-48
2022/07/25 10:49:00;;;;;;;10.52;9.48;;;25.90;64.10;;;;;;5050122;28;20082;-48
2022/07/25 10:51:30;;;;;;;10.25;9.35;;;25.70;65.60;;;;;;5050148;28;20017;-48
2022/07/25 10:53:55;;;;;;;11.90;10.05;;;25.60;67.20;;;;;;5049642;28;20021;-48
2022/07/25 10:56:23;;;;;;;12.88;11.68;;;25.40;69.20;;;;;;5031472;28;20036;-48
2022/07/25 10:58:50;;;;;;;14.35;12.85;;;25.40;70.50;;;;;;5047934;28;20146;-49
2022/07/25 11:01:23;;;;;;;10.80;9.80;;;25.20;71.40;;;;;;5048436;28;20031;-49
2022/07/25 11:03:50;;;;;;;12.88;11.60;;;25.20;72.20;;;;;;5049100;28;20029;-47
2022/07/25 11:06:16;;;;;;;12.70;11.50;;;25.80;73.70;;;;;;5032109;28;20025;-51
2022/07/25 11:08:43;;;;;;;12.25;11.05;;;26.40;73.10;;;;;;5049618;28;20083;-49
2022/07/25 11:11:11;;;;;;;14.25;12.75;;;26.90;69.80;;;;;;5049559;28;20031;-48
2022/07/25 11:13:41;;;;;;;14.52;11.18;;;27.10;65.10;;;;;;5048337;28;20335;-48
2022/07/25 11:16:08;;;;;;;12.88;11.50;;;27.10;66.10;;;;;;5049646;28;20433;-48
2022/07/25 11:18:39;;;;;;;9.98;8.98;;;26.90;62.60;;;;;;5031948;28;20060;-49
2022/07/25 11:21:07;;;;;;;10.75;9.85;;;26.90;63.70;;;;;;5049507;28;20349;-49
2022/07/25 11:23:37;;;;;;;12.35;9.55;;;26.70;64.10;;;;;;5049335;28;20075;-51
2022/07/25 11:26:08;;;;;;;11.40;9.63;;;26.50;64.10;;;;;;5049396;28;20025;-50
2022/07/25 11:28:40;;;;;;;12.80;10.25;;;26.50;65.00;;;;;;5049109;28;20024;-47
2022/07/25 11:31:06;;;;;;;12.25;11.02;;;26.60;65.10;;;;;;5048432;28;20033;-47
2022/07/25 11:33:32;;;;;;;12.07;9.90;;;26.50;64.10;;;;;;5031654;28;20086;-47
2022/07/25 11:35:58;;;;;;;10.20;7.35;;;26.30;64.50;;;;;;5049355;28;20033;-50
2022/07/25 11:38:25;;;;;;;11.52;8.02;;;25.90;64.10;;;;;;5049052;28;20116;-48
2022/07/25 11:40:51;;;;;;;7.20;6.50;;;25.40;64.90;;;;;;5049264;28;20446;-48
2022/07/25 11:43:22;;;;;;;10.05;7.40;;;25.20;65.30;;;;;;5048168;28;20064;-48
2022/07/25 11:46:00;;;;;;;8.52;7.68;;;25.00;66.90;;;;;;5031661;28;20353;-47
2022/07/25 11:48:33;;;;;;;8.68;7.18;;;24.90;68.50;;;;;;5049161;28;20043;-48
2022/07/25 11:51:17;;;;;;;9.23;8.32;;;24.80;69.30;;;;;;5048192;28;20068;-50
2022/07/25 11:53:48;;;;;;;10.23;9.18;;;24.60;70.00;;;;;;5031663;28;20025;-49
2022/07/25 11:56:19;;;;;;;10.80;9.15;;;24.70;70.10;;;;;;5047860;28;20035;-52
2022/07/25 11:59:00;;;;;;;9.95;8.95;;;24.80;70.10;;;;;;5049032;28;20074;-47
2022/07/25 12:01:38;;;;;;;11.63;9.10;;;25.00;70.30;;;;;;5049149;28;20025;-48
2022/07/25 12:04:18;;;;;;;10.30;9.05;;;25.20;69.50;;;;;;5049117;28;20029;-49
2022/07/25 12:06:48;;;;;;;10.77;9.77;;;25.40;68.50;;;;;;5049360;28;20029;-47
2022/07/25 12:09:15;;;;;;;9.50;8.60;;;25.60;66.80;;;;;;5052856;28;20488;-47
2022/07/25 12:11:44;;;;;;;8.95;8.05;;;25.70;67.20;;;;;;5053175;28;20059;-47
2022/07/25 12:14:13;;;;;;;12.15;9.55;;;25.60;66.00;;;;;;5035303;28;20037;-48
2022/07/25 12:16:39;;;;;;;10.40;7.80;;;25.50;66.10;;;;;;5052792;28;20051;-48
2022/07/25 12:19:09;;;;;;;9.20;8.27;;;25.50;68.30;;;;;;5035392;28;20433;-49
2022/07/25 12:21:36;;;;;;;11.63;9.32;;;25.40;68.40;;;;;;5052766;28;20431;-47
2022/07/25 12:24:02;;;;;;;9.27;8.30;;;25.30;68.70;;;;;;5035106;28;20471;-47
2022/07/25 12:26:28;;;;;;;6.93;6.05;;;25.20;70.40;;;;;;5052611;28;20029;-47
2022/07/25 12:28:56;;;;;;;8.75;7.95;;;24.90;71.00;;;;;;5052602;28;20013;-47
2022/07/25 12:31:23;;;;;;;10.68;6.82;;;24.90;71.70;;;;;;5051456;28;20036;-47
2022/07/25 12:33:51;;;;;;;7.55;6.40;;;24.50;71.70;;;;;;5052344;28;20013;-46
2022/07/25 12:36:17;;;;;;;9.77;5.63;;;24.40;74.30;;;;;;5052302;28;20021;-46
2022/07/25 12:38:42;;;;;;;8.52;3.97;;;24.30;73.90;;;;;;5052267;28;20029;-50
2022/07/25 12:41:08;;;;;;;11.73;4.75;;;23.90;74.40;;;;;;5051452;28;20025;-51